RYR2679 EGSS-LIME
Flight info
| Callsign | RYR2679 |
|---|---|
| Flight time | 1h 39m |
| Altitude | 35000 |
| Route | CLN M84 KONAN DCT KOK UL607 REMBA M624 DEMUL DCT LIMGO N852 SUTAL DCT GTQ DCT POGOL DCT LASAT DCT DEVDI DCT RIPUS DCT GERSA DCT SOSON DCT ODINA |
| Aircraft | B738/M-SDE2E3FGHIRWXY/LB1 |
Departure
| Time | 2026-05-05 16:35 |
|---|---|
| Airport | London Stansted Airport (EGSS) |
Arrival
| Time | 2026-05-05 18:14 |
|---|---|
| Airport | Il Caravaggio International Airport (LIME) |
| Time | Latitude | Longitude | Altitude | Speed | Heading |
|---|---|---|---|---|---|
| 2026-05-05 15:43 | 51.88914 | 0.25256 | 351 ft | 0 kts | 43° |
| 2026-05-05 16:15 | 51.88890 | 0.25219 | 360 ft | 4 kts | 40° |
| 2026-05-05 16:15 | 51.88850 | 0.25227 | 356 ft | 4 kts | 313° |
| 2026-05-05 16:16 | 51.88840 | 0.25245 | 361 ft | 0 kts | 313° |
| 2026-05-05 16:23 | 51.88859 | 0.25212 | 359 ft | 6 kts | 313° |
| 2026-05-05 16:23 | 51.88885 | 0.25167 | 355 ft | 5 kts | 313° |
| 2026-05-05 16:23 | 51.88936 | 0.25078 | 355 ft | 5 kts | 313° |
| 2026-05-05 16:24 | 51.88961 | 0.25034 | 354 ft | 6 kts | 307° |
| 2026-05-05 16:24 | 51.88962 | 0.24972 | 354 ft | 6 kts | 248° |
| 2026-05-05 16:24 | 51.88865 | 0.24811 | 358 ft | 12 kts | 223° |
| 2026-05-05 16:25 | 51.88805 | 0.24721 | 360 ft | 12 kts | 223° |
| 2026-05-05 16:25 | 51.88675 | 0.24526 | 347 ft | 14 kts | 222° |
| 2026-05-05 16:25 | 51.88607 | 0.24424 | 349 ft | 13 kts | 223° |
| 2026-05-05 16:26 | 51.88478 | 0.24229 | 348 ft | 12 kts | 223° |
| 2026-05-05 16:26 | 51.88355 | 0.24045 | 352 ft | 12 kts | 223° |
| 2026-05-05 16:27 | 51.88295 | 0.23956 | 349 ft | 11 kts | 222° |
| 2026-05-05 16:27 | 51.88238 | 0.23869 | 346 ft | 11 kts | 224° |
| 2026-05-05 16:27 | 51.88165 | 0.23762 | 336 ft | 18 kts | 223° |
| 2026-05-05 16:27 | 51.88060 | 0.23605 | 338 ft | 22 kts | 223° |
| 2026-05-05 16:28 | 51.87969 | 0.23467 | 340 ft | 16 kts | 223° |
| 2026-05-05 16:28 | 51.87900 | 0.23362 | 338 ft | 11 kts | 223° |
| 2026-05-05 16:28 | 51.87869 | 0.23262 | 338 ft | 10 kts | 285° |
| 2026-05-05 16:28 | 51.87916 | 0.23171 | 337 ft | 11 kts | 298° |
| 2026-05-05 16:29 | 51.87901 | 0.23064 | 335 ft | 11 kts | 222° |
| 2026-05-05 16:29 | 51.87850 | 0.22990 | 337 ft | 9 kts | 223° |
| 2026-05-05 16:29 | 51.87806 | 0.22925 | 336 ft | 8 kts | 222° |
| 2026-05-05 16:29 | 51.87763 | 0.22861 | 336 ft | 9 kts | 223° |
| 2026-05-05 16:30 | 51.87709 | 0.22779 | 334 ft | 12 kts | 223° |
| 2026-05-05 16:30 | 51.87650 | 0.22690 | 335 ft | 12 kts | 223° |
| 2026-05-05 16:30 | 51.87590 | 0.22600 | 330 ft | 12 kts | 223° |
| 2026-05-05 16:30 | 51.87523 | 0.22501 | 328 ft | 13 kts | 222° |
| 2026-05-05 16:31 | 51.87457 | 0.22401 | 327 ft | 13 kts | 223° |
| 2026-05-05 16:31 | 51.87404 | 0.22301 | 324 ft | 12 kts | 247° |
| 2026-05-05 16:31 | 51.87417 | 0.22180 | 323 ft | 11 kts | 309° |
| 2026-05-05 16:31 | 51.87437 | 0.22143 | 323 ft | 0 kts | 312° |
| 2026-05-05 16:33 | 51.87439 | 0.22140 | 323 ft | 2 kts | 312° |
| 2026-05-05 16:33 | 51.87463 | 0.22097 | 322 ft | 8 kts | 312° |
| 2026-05-05 16:33 | 51.87509 | 0.22032 | 322 ft | 9 kts | 344° |
| 2026-05-05 16:33 | 51.87559 | 0.22070 | 322 ft | 8 kts | 41° |
| 2026-05-05 16:34 | 51.87643 | 0.22195 | 323 ft | 41 kts | 43° |
| 2026-05-05 16:34 | 51.88031 | 0.22777 | 328 ft | 110 kts | 43° |
| 2026-05-05 16:34 | 51.88734 | 0.23831 | 371 ft | 161 kts | 47° |
| 2026-05-05 16:34 | 51.89550 | 0.25180 | 932 ft | 172 kts | 47° |
| 2026-05-05 16:35 | 51.90373 | 0.26570 | 1789 ft | 169 kts | 43° |
| 2026-05-05 16:35 | 51.91213 | 0.28053 | 2262 ft | 193 kts | 59° |
| 2026-05-05 16:35 | 51.91584 | 0.30258 | 2574 ft | 215 kts | 88° |
| 2026-05-05 16:35 | 51.91313 | 0.32683 | 3102 ft | 224 kts | 109° |
| 2026-05-05 16:36 | 51.90645 | 0.35064 | 3460 ft | 240 kts | 113° |
| 2026-05-05 16:36 | 51.89919 | 0.37523 | 3959 ft | 242 kts | 113° |
| 2026-05-05 16:36 | 51.89203 | 0.39956 | 3981 ft | 243 kts | 113° |
| 2026-05-05 16:36 | 51.88476 | 0.42413 | 3988 ft | 242 kts | 113° |
| 2026-05-05 16:37 | 51.87751 | 0.44876 | 3991 ft | 242 kts | 113° |
| 2026-05-05 16:37 | 51.87029 | 0.47334 | 3994 ft | 242 kts | 113° |
| 2026-05-05 16:37 | 51.86306 | 0.49797 | 3995 ft | 243 kts | 112° |
| 2026-05-05 16:37 | 51.85575 | 0.52289 | 3979 ft | 249 kts | 113° |
| 2026-05-05 16:38 | 51.84808 | 0.54902 | 3978 ft | 263 kts | 112° |
| 2026-05-05 16:38 | 51.84018 | 0.57591 | 3968 ft | 265 kts | 113° |
| 2026-05-05 16:38 | 51.83322 | 0.60338 | 4076 ft | 266 kts | 103° |
| 2026-05-05 16:38 | 51.82999 | 0.63307 | 4727 ft | 269 kts | 93° |
| 2026-05-05 16:39 | 51.82987 | 0.66337 | 4936 ft | 271 kts | 84° |
| 2026-05-05 16:39 | 51.83115 | 0.69363 | 4955 ft | 268 kts | 84° |
| 2026-05-05 16:39 | 51.83251 | 0.72341 | 4969 ft | 264 kts | 84° |
| 2026-05-05 16:39 | 51.83379 | 0.75314 | 5187 ft | 268 kts | 84° |
| 2026-05-05 16:40 | 51.83502 | 0.78344 | 5825 ft | 272 kts | 84° |
| 2026-05-05 16:40 | 51.83621 | 0.81420 | 5947 ft | 275 kts | 84° |
| 2026-05-05 16:40 | 51.83734 | 0.84494 | 5957 ft | 272 kts | 84° |
| 2026-05-05 16:40 | 51.83844 | 0.87532 | 5957 ft | 269 kts | 84° |
| 2026-05-05 16:41 | 51.83629 | 0.90523 | 5946 ft | 273 kts | 112° |
| 2026-05-05 16:41 | 51.82422 | 0.92878 | 6062 ft | 279 kts | 144° |
| 2026-05-05 16:41 | 51.80805 | 0.94668 | 6708 ft | 283 kts | 143° |
| 2026-05-05 16:41 | 51.79183 | 0.96514 | 7449 ft | 289 kts | 143° |
| 2026-05-05 16:42 | 51.77543 | 0.98391 | 8318 ft | 287 kts | 143° |
| 2026-05-05 16:42 | 51.75912 | 1.00262 | 9193 ft | 288 kts | 143° |
| 2026-05-05 16:42 | 51.74265 | 1.02156 | 9871 ft | 295 kts | 143° |
| 2026-05-05 16:42 | 51.72570 | 1.04107 | 10314 ft | 308 kts | 144° |
| 2026-05-05 16:43 | 51.70757 | 1.06195 | 10483 ft | 331 kts | 144° |
| 2026-05-05 16:43 | 51.68824 | 1.08421 | 10675 ft | 351 kts | 144° |
| 2026-05-05 16:43 | 51.66807 | 1.10740 | 11150 ft | 360 kts | 144° |
| 2026-05-05 16:43 | 51.64762 | 1.13090 | 11839 ft | 362 kts | 144° |
| 2026-05-05 16:44 | 51.62710 | 1.15446 | 12559 ft | 364 kts | 144° |
| 2026-05-05 16:44 | 51.60644 | 1.17815 | 13262 ft | 366 kts | 144° |
| 2026-05-05 16:44 | 51.58570 | 1.20192 | 13934 ft | 368 kts | 144° |
| 2026-05-05 16:44 | 51.56470 | 1.22596 | 14534 ft | 371 kts | 143° |
| 2026-05-05 16:45 | 51.54365 | 1.25003 | 15164 ft | 373 kts | 143° |
| 2026-05-05 16:45 | 51.52241 | 1.27429 | 15704 ft | 377 kts | 144° |
| 2026-05-05 16:45 | 51.50093 | 1.29882 | 16286 ft | 380 kts | 144° |
| 2026-05-05 16:45 | 51.47929 | 1.32348 | 16827 ft | 384 kts | 144° |
| 2026-05-05 16:46 | 51.45743 | 1.34835 | 16912 ft | 385 kts | 143° |
| 2026-05-05 16:46 | 51.43617 | 1.37457 | 17023 ft | 388 kts | 136° |
| 2026-05-05 16:46 | 51.41795 | 1.40643 | 17636 ft | 387 kts | 127° |
| 2026-05-05 16:46 | 51.40170 | 1.44065 | 18357 ft | 386 kts | 127° |
| 2026-05-05 16:47 | 51.38536 | 1.47521 | 18746 ft | 392 kts | 127° |
| 2026-05-05 16:47 | 51.36876 | 1.51016 | 19204 ft | 395 kts | 127° |
| 2026-05-05 16:47 | 51.35203 | 1.54517 | 19675 ft | 398 kts | 128° |
| 2026-05-05 16:47 | 51.33510 | 1.58042 | 20176 ft | 400 kts | 128° |
| 2026-05-05 16:48 | 51.31809 | 1.61571 | 20691 ft | 401 kts | 128° |
| 2026-05-05 16:48 | 51.30089 | 1.65128 | 20995 ft | 408 kts | 128° |
| 2026-05-05 16:48 | 51.28344 | 1.68730 | 21433 ft | 411 kts | 129° |
| 2026-05-05 16:48 | 51.26589 | 1.72349 | 21888 ft | 413 kts | 128° |
| 2026-05-05 16:49 | 51.24821 | 1.75989 | 22290 ft | 417 kts | 129° |
| 2026-05-05 16:49 | 51.23036 | 1.79658 | 22700 ft | 420 kts | 128° |
| 2026-05-05 16:49 | 51.21235 | 1.83357 | 23088 ft | 423 kts | 129° |
| 2026-05-05 16:49 | 51.19425 | 1.87071 | 23507 ft | 426 kts | 129° |
| 2026-05-05 16:50 | 51.17602 | 1.90805 | 23861 ft | 427 kts | 129° |
| 2026-05-05 16:50 | 51.15798 | 1.94496 | 24552 ft | 420 kts | 129° |
| 2026-05-05 16:50 | 51.14216 | 1.98429 | 24827 ft | 426 kts | 117° |
| 2026-05-05 16:50 | 51.13134 | 2.02866 | 25065 ft | 433 kts | 107° |
| 2026-05-05 16:51 | 51.12569 | 2.07533 | 25351 ft | 438 kts | 97° |
| 2026-05-05 16:51 | 51.12315 | 2.12435 | 25708 ft | 440 kts | 96° |
| 2026-05-05 16:51 | 51.12098 | 2.17238 | 26030 ft | 441 kts | 96° |
| 2026-05-05 16:51 | 51.11874 | 2.22122 | 26336 ft | 443 kts | 96° |
| 2026-05-05 16:52 | 51.11634 | 2.27015 | 26637 ft | 445 kts | 97° |
| 2026-05-05 16:52 | 51.11376 | 2.31936 | 26930 ft | 447 kts | 97° |
| 2026-05-05 16:52 | 51.11108 | 2.36872 | 27219 ft | 448 kts | 97° |
| 2026-05-05 16:52 | 51.10832 | 2.41819 | 27476 ft | 451 kts | 97° |
| 2026-05-05 16:53 | 51.10551 | 2.46796 | 27716 ft | 453 kts | 97° |
| 2026-05-05 16:53 | 51.10267 | 2.51813 | 28011 ft | 455 kts | 97° |
| 2026-05-05 16:53 | 51.09982 | 2.56823 | 28307 ft | 456 kts | 97° |
| 2026-05-05 16:53 | 51.09694 | 2.61853 | 28578 ft | 457 kts | 97° |
| 2026-05-05 16:54 | 51.09288 | 2.66864 | 28829 ft | 457 kts | 104° |
| 2026-05-05 16:54 | 51.08482 | 2.71746 | 29068 ft | 457 kts | 108° |
| 2026-05-05 16:54 | 51.07572 | 2.76592 | 29408 ft | 456 kts | 109° |
| 2026-05-05 16:54 | 51.06653 | 2.81383 | 29905 ft | 452 kts | 109° |
| 2026-05-05 16:55 | 51.05744 | 2.86157 | 30286 ft | 450 kts | 109° |
| 2026-05-05 16:55 | 51.04849 | 2.90927 | 30646 ft | 448 kts | 109° |
| 2026-05-05 16:55 | 51.03970 | 2.95668 | 30975 ft | 447 kts | 109° |
| 2026-05-05 16:55 | 51.03095 | 3.00415 | 31253 ft | 447 kts | 109° |
| 2026-05-05 16:56 | 51.02227 | 3.05141 | 31553 ft | 446 kts | 109° |
| 2026-05-05 16:56 | 51.01359 | 3.09868 | 31882 ft | 445 kts | 109° |
| 2026-05-05 16:56 | 51.00491 | 3.14582 | 32204 ft | 444 kts | 109° |
| 2026-05-05 16:56 | 50.99624 | 3.19275 | 32477 ft | 444 kts | 109° |
| 2026-05-05 16:57 | 50.98753 | 3.23975 | 32774 ft | 443 kts | 109° |
| 2026-05-05 16:57 | 50.97881 | 3.28662 | 33067 ft | 442 kts | 109° |
| 2026-05-05 16:57 | 50.97016 | 3.33307 | 33374 ft | 440 kts | 110° |
| 2026-05-05 16:57 | 50.96149 | 3.37949 | 33806 ft | 436 kts | 110° |
| 2026-05-05 16:58 | 50.95288 | 3.42548 | 34066 ft | 435 kts | 110° |
| 2026-05-05 16:58 | 50.94422 | 3.47156 | 34202 ft | 437 kts | 110° |
| 2026-05-05 16:58 | 50.93551 | 3.51783 | 34319 ft | 439 kts | 110° |
| 2026-05-05 16:58 | 50.92675 | 3.56430 | 34473 ft | 440 kts | 110° |
| 2026-05-05 16:59 | 50.91798 | 3.61071 | 34666 ft | 440 kts | 110° |
| 2026-05-05 16:59 | 50.90916 | 3.65714 | 34839 ft | 440 kts | 110° |
| 2026-05-05 16:59 | 50.89164 | 3.74794 | 34862 ft | 444 kts | 110° |
| 2026-05-05 17:00 | 50.87359 | 3.84088 | 34859 ft | 438 kts | 110° |
| 2026-05-05 17:00 | 50.85573 | 3.93253 | 34862 ft | 433 kts | 110° |
| 2026-05-05 17:01 | 50.83801 | 4.02310 | 34897 ft | 433 kts | 110° |
| 2026-05-05 17:01 | 50.81995 | 4.11484 | 34889 ft | 440 kts | 110° |
| 2026-05-05 17:02 | 50.80163 | 4.20757 | 34875 ft | 444 kts | 110° |
| 2026-05-05 17:02 | 50.78626 | 4.28509 | 34881 ft | 444 kts | 110° |
| 2026-05-05 17:03 | 50.76785 | 4.37760 | 34866 ft | 437 kts | 110° |
| 2026-05-05 17:03 | 50.74965 | 4.46857 | 34882 ft | 434 kts | 110° |
| 2026-05-05 17:04 | 50.73138 | 4.55945 | 34880 ft | 435 kts | 110° |
| 2026-05-05 17:04 | 50.71323 | 4.65046 | 34877 ft | 435 kts | 110° |
| 2026-05-05 17:05 | 50.69558 | 4.74200 | 34873 ft | 436 kts | 110° |
| 2026-05-05 17:05 | 50.67779 | 4.83348 | 34869 ft | 438 kts | 110° |
| 2026-05-05 17:06 | 50.65282 | 4.92014 | 34864 ft | 432 kts | 126° |
| 2026-05-05 17:06 | 50.61375 | 4.99097 | 34864 ft | 428 kts | 137° |
| 2026-05-05 17:07 | 50.57087 | 5.05626 | 34848 ft | 429 kts | 138° |
| 2026-05-05 17:07 | 50.52812 | 5.12151 | 34841 ft | 429 kts | 137° |
| 2026-05-05 17:08 | 50.48550 | 5.18702 | 34840 ft | 429 kts | 137° |
| 2026-05-05 17:08 | 50.44318 | 5.25213 | 34855 ft | 428 kts | 137° |
| 2026-05-05 17:09 | 50.40060 | 5.31747 | 34841 ft | 428 kts | 137° |
| 2026-05-05 17:09 | 50.35783 | 5.38294 | 34833 ft | 427 kts | 137° |
| 2026-05-05 17:10 | 50.31531 | 5.44784 | 34830 ft | 427 kts | 137° |
| 2026-05-05 17:10 | 50.27280 | 5.51254 | 34841 ft | 426 kts | 137° |
| 2026-05-05 17:11 | 50.23040 | 5.57692 | 34844 ft | 425 kts | 137° |
| 2026-05-05 17:11 | 50.18829 | 5.64070 | 34820 ft | 424 kts | 137° |
| 2026-05-05 17:12 | 50.14600 | 5.70458 | 34822 ft | 423 kts | 137° |
| 2026-05-05 17:12 | 50.10344 | 5.76873 | 34831 ft | 422 kts | 137° |
| 2026-05-05 17:13 | 50.06125 | 5.83210 | 34815 ft | 422 kts | 137° |
| 2026-05-05 17:13 | 50.01903 | 5.89531 | 34823 ft | 421 kts | 137° |
| 2026-05-05 17:14 | 49.97712 | 5.95789 | 34823 ft | 421 kts | 137° |
| 2026-05-05 17:14 | 49.93015 | 6.01130 | 34840 ft | 419 kts | 149° |
| 2026-05-05 17:15 | 49.87979 | 6.05729 | 34820 ft | 420 kts | 149° |
| 2026-05-05 17:15 | 49.82948 | 6.10363 | 34817 ft | 421 kts | 149° |
| 2026-05-05 17:16 | 49.77912 | 6.15037 | 34817 ft | 422 kts | 149° |
| 2026-05-05 17:16 | 49.72875 | 6.19714 | 34834 ft | 423 kts | 149° |
| 2026-05-05 17:17 | 49.67803 | 6.24410 | 34844 ft | 425 kts | 149° |
| 2026-05-05 17:17 | 49.62677 | 6.28987 | 34818 ft | 427 kts | 155° |
| 2026-05-05 17:18 | 49.57199 | 6.32524 | 34832 ft | 427 kts | 158° |
| 2026-05-05 17:18 | 49.51682 | 6.35981 | 34828 ft | 428 kts | 157° |
| 2026-05-05 17:19 | 49.46187 | 6.39525 | 34815 ft | 428 kts | 157° |
| 2026-05-05 17:19 | 49.40728 | 6.43205 | 34831 ft | 429 kts | 156° |
| 2026-05-05 17:20 | 49.35272 | 6.46936 | 34822 ft | 429 kts | 156° |
| 2026-05-05 17:20 | 49.29811 | 6.50647 | 34810 ft | 429 kts | 156° |
| 2026-05-05 17:21 | 49.24344 | 6.54339 | 34830 ft | 430 kts | 156° |
| 2026-05-05 17:22 | 49.16136 | 6.59862 | 34819 ft | 430 kts | 156° |
| 2026-05-05 17:22 | 49.10695 | 6.63514 | 34815 ft | 430 kts | 156° |
| 2026-05-05 17:23 | 49.05173 | 6.67211 | 34832 ft | 430 kts | 157° |
| 2026-05-05 17:23 | 48.99606 | 6.70546 | 34824 ft | 430 kts | 167° |
| 2026-05-05 17:24 | 48.93728 | 6.71555 | 34828 ft | 430 kts | 181° |
| 2026-05-05 17:24 | 48.87743 | 6.71256 | 34830 ft | 430 kts | 182° |
| 2026-05-05 17:25 | 48.81754 | 6.70951 | 34828 ft | 431 kts | 181° |
| 2026-05-05 17:25 | 48.75762 | 6.70694 | 34823 ft | 431 kts | 181° |
| 2026-05-05 17:26 | 48.69785 | 6.70459 | 34825 ft | 430 kts | 181° |
| 2026-05-05 17:26 | 48.63800 | 6.70227 | 34821 ft | 430 kts | 181° |
| 2026-05-05 17:27 | 48.58444 | 6.70019 | 34824 ft | 430 kts | 181° |
| 2026-05-05 17:27 | 48.52474 | 6.69787 | 34828 ft | 429 kts | 181° |
| 2026-05-05 17:28 | 48.47093 | 6.69578 | 34834 ft | 429 kts | 181° |
| 2026-05-05 17:28 | 48.41308 | 6.69355 | 34837 ft | 429 kts | 181° |
| 2026-05-05 17:29 | 48.35429 | 6.69130 | 34839 ft | 428 kts | 181° |
| 2026-05-05 17:29 | 48.29477 | 6.68908 | 34839 ft | 428 kts | 181° |
| 2026-05-05 17:30 | 48.23521 | 6.68685 | 34856 ft | 428 kts | 182° |
| 2026-05-05 17:30 | 48.17634 | 6.69531 | 34865 ft | 430 kts | 159° |
| 2026-05-05 17:30 | 48.14993 | 6.71650 | 34843 ft | 434 kts | 146° |
| 2026-05-05 17:31 | 48.12766 | 6.74692 | 34851 ft | 438 kts | 131° |
| 2026-05-05 17:31 | 48.09160 | 6.82089 | 34858 ft | 441 kts | 127° |
| 2026-05-05 17:32 | 48.05644 | 6.89617 | 34849 ft | 442 kts | 128° |
| 2026-05-05 17:32 | 48.02102 | 6.97063 | 34855 ft | 443 kts | 128° |
| 2026-05-05 17:33 | 47.98466 | 7.04590 | 34836 ft | 445 kts | 129° |
| 2026-05-05 17:33 | 47.94832 | 7.12071 | 34836 ft | 446 kts | 129° |
| 2026-05-05 17:34 | 47.91185 | 7.19559 | 34843 ft | 447 kts | 129° |
| 2026-05-05 17:34 | 47.87551 | 7.27003 | 34827 ft | 448 kts | 129° |
| 2026-05-05 17:35 | 47.83881 | 7.34502 | 34841 ft | 448 kts | 130° |
| 2026-05-05 17:35 | 47.80203 | 7.41997 | 34857 ft | 449 kts | 130° |
| 2026-05-05 17:36 | 47.76519 | 7.49488 | 34858 ft | 449 kts | 130° |
| 2026-05-05 17:36 | 47.72820 | 7.56981 | 34880 ft | 449 kts | 130° |
| 2026-05-05 17:37 | 47.69117 | 7.64447 | 34878 ft | 449 kts | 130° |
| 2026-05-05 17:37 | 47.65404 | 7.71913 | 34879 ft | 450 kts | 130° |
| 2026-05-05 17:38 | 47.61682 | 7.79383 | 34879 ft | 450 kts | 130° |
| 2026-05-05 17:38 | 47.57963 | 7.86827 | 34877 ft | 450 kts | 130° |
| 2026-05-05 17:39 | 47.54240 | 7.94260 | 34874 ft | 449 kts | 130° |
| 2026-05-05 17:39 | 47.50483 | 8.01741 | 34863 ft | 449 kts | 131° |
| 2026-05-05 17:40 | 47.46785 | 8.09082 | 34880 ft | 449 kts | 131° |
| 2026-05-05 17:40 | 47.43047 | 8.16484 | 34874 ft | 450 kts | 131° |
| 2026-05-05 17:41 | 47.39289 | 8.23906 | 34879 ft | 451 kts | 131° |
| 2026-05-05 17:41 | 47.35508 | 8.31355 | 34870 ft | 452 kts | 131° |
| 2026-05-05 17:42 | 47.31735 | 8.38771 | 34878 ft | 452 kts | 131° |
| 2026-05-05 17:42 | 47.27896 | 8.46082 | 34865 ft | 448 kts | 140° |
| 2026-05-05 17:42 | 47.25452 | 8.48816 | 34900 ft | 435 kts | 157° |
| 2026-05-05 17:43 | 47.22715 | 8.50449 | 34871 ft | 428 kts | 171° |
| 2026-05-05 17:43 | 47.16827 | 8.51464 | 34886 ft | 424 kts | 179° |
| 2026-05-05 17:44 | 47.10937 | 8.52186 | 34891 ft | 426 kts | 178° |
| 2026-05-05 17:44 | 47.05019 | 8.53030 | 34882 ft | 428 kts | 179° |
| 2026-05-05 17:45 | 46.99082 | 8.53896 | 34906 ft | 428 kts | 179° |
| 2026-05-05 17:45 | 46.93151 | 8.54752 | 34913 ft | 429 kts | 179° |
| 2026-05-05 17:46 | 46.87225 | 8.55606 | 34931 ft | 425 kts | 179° |
| 2026-05-05 17:46 | 46.82338 | 8.56307 | 34750 ft | 427 kts | 179° |
| 2026-05-05 17:46 | 46.79363 | 8.56732 | 34242 ft | 428 kts | 179° |
| 2026-05-05 17:47 | 46.76403 | 8.57157 | 33672 ft | 425 kts | 180° |
| 2026-05-05 17:47 | 46.73484 | 8.57578 | 33199 ft | 420 kts | 180° |
| 2026-05-05 17:47 | 46.70588 | 8.57993 | 32785 ft | 416 kts | 180° |
| 2026-05-05 17:47 | 46.66806 | 8.58534 | 32159 ft | 406 kts | 180° |
| 2026-05-05 17:48 | 46.64927 | 8.58808 | 31935 ft | 400 kts | 180° |
| 2026-05-05 17:48 | 46.62173 | 8.59200 | 31503 ft | 396 kts | 181° |
| 2026-05-05 17:48 | 46.59441 | 8.59585 | 31080 ft | 392 kts | 181° |
| 2026-05-05 17:48 | 46.56735 | 8.59969 | 30666 ft | 389 kts | 181° |
| 2026-05-05 17:49 | 46.54044 | 8.60351 | 30253 ft | 387 kts | 181° |
| 2026-05-05 17:49 | 46.51380 | 8.60730 | 29797 ft | 384 kts | 181° |
| 2026-05-05 17:49 | 46.48735 | 8.61106 | 29361 ft | 379 kts | 181° |
| 2026-05-05 17:49 | 46.46127 | 8.61477 | 28911 ft | 374 kts | 181° |
| 2026-05-05 17:50 | 46.43564 | 8.61842 | 28523 ft | 367 kts | 181° |
| 2026-05-05 17:50 | 46.41038 | 8.62200 | 28121 ft | 364 kts | 181° |
| 2026-05-05 17:50 | 46.38530 | 8.62553 | 27697 ft | 359 kts | 181° |
| 2026-05-05 17:50 | 46.36066 | 8.62901 | 27305 ft | 355 kts | 181° |
| 2026-05-05 17:51 | 46.33613 | 8.63246 | 26904 ft | 353 kts | 180° |
| 2026-05-05 17:51 | 46.31174 | 8.63589 | 26502 ft | 351 kts | 180° |
| 2026-05-05 17:51 | 46.28744 | 8.63929 | 26125 ft | 350 kts | 180° |
| 2026-05-05 17:51 | 46.26312 | 8.64267 | 25717 ft | 355 kts | 180° |
| 2026-05-05 17:52 | 46.23814 | 8.64613 | 25320 ft | 366 kts | 180° |
| 2026-05-05 17:52 | 46.21277 | 8.64971 | 24909 ft | 365 kts | 180° |
| 2026-05-05 17:52 | 46.18763 | 8.65327 | 24488 ft | 364 kts | 180° |
| 2026-05-05 17:52 | 46.16247 | 8.65682 | 24071 ft | 361 kts | 180° |
| 2026-05-05 17:53 | 46.13755 | 8.66064 | 23659 ft | 361 kts | 175° |
| 2026-05-05 17:53 | 46.11375 | 8.67291 | 23145 ft | 371 kts | 155° |
| 2026-05-05 17:53 | 46.09347 | 8.69529 | 22784 ft | 376 kts | 140° |
| 2026-05-05 17:53 | 46.07782 | 8.72591 | 22397 ft | 381 kts | 128° |
| 2026-05-05 17:54 | 46.06412 | 8.75900 | 21976 ft | 380 kts | 126° |
| 2026-05-05 17:54 | 46.05112 | 8.79154 | 21569 ft | 379 kts | 126° |
| 2026-05-05 17:54 | 46.03805 | 8.82436 | 21180 ft | 376 kts | 126° |
| 2026-05-05 17:54 | 46.02503 | 8.85682 | 20782 ft | 374 kts | 126° |
| 2026-05-05 17:55 | 46.01196 | 8.88907 | 20399 ft | 371 kts | 126° |
| 2026-05-05 17:55 | 45.99876 | 8.92139 | 20009 ft | 369 kts | 126° |
| 2026-05-05 17:55 | 45.98574 | 8.95308 | 19628 ft | 366 kts | 126° |
| 2026-05-05 17:55 | 45.97298 | 8.98404 | 19257 ft | 364 kts | 126° |
| 2026-05-05 17:56 | 45.95997 | 9.01557 | 18878 ft | 362 kts | 126° |
| 2026-05-05 17:56 | 45.94714 | 9.04658 | 18495 ft | 361 kts | 126° |
| 2026-05-05 17:56 | 45.93450 | 9.07709 | 18088 ft | 358 kts | 126° |
| 2026-05-05 17:56 | 45.92161 | 9.10817 | 17682 ft | 356 kts | 126° |
| 2026-05-05 17:57 | 45.90914 | 9.13824 | 17256 ft | 354 kts | 126° |
| 2026-05-05 17:57 | 45.89659 | 9.16845 | 16916 ft | 351 kts | 126° |
| 2026-05-05 17:57 | 45.88391 | 9.19893 | 16519 ft | 350 kts | 126° |
| 2026-05-05 17:57 | 45.87177 | 9.22809 | 16145 ft | 349 kts | 126° |
| 2026-05-05 17:58 | 45.85923 | 9.25820 | 15774 ft | 347 kts | 125° |
| 2026-05-05 17:58 | 45.84684 | 9.28790 | 15404 ft | 346 kts | 125° |
| 2026-05-05 17:58 | 45.83466 | 9.31708 | 15029 ft | 344 kts | 125° |
| 2026-05-05 17:58 | 45.82237 | 9.34646 | 14660 ft | 343 kts | 125° |
| 2026-05-05 17:59 | 45.81016 | 9.37562 | 14296 ft | 342 kts | 125° |
| 2026-05-05 17:59 | 45.79779 | 9.40510 | 13903 ft | 342 kts | 124° |
| 2026-05-05 17:59 | 45.78560 | 9.43410 | 13514 ft | 341 kts | 124° |
| 2026-05-05 17:59 | 45.77339 | 9.46314 | 13115 ft | 339 kts | 124° |
| 2026-05-05 18:00 | 45.76109 | 9.49237 | 12724 ft | 338 kts | 124° |
| 2026-05-05 18:00 | 45.74897 | 9.52116 | 12350 ft | 337 kts | 124° |
| 2026-05-05 18:00 | 45.73705 | 9.54946 | 11989 ft | 335 kts | 124° |
| 2026-05-05 18:00 | 45.72502 | 9.57795 | 11633 ft | 334 kts | 124° |
| 2026-05-05 18:01 | 45.71290 | 9.60664 | 11271 ft | 332 kts | 124° |
| 2026-05-05 18:01 | 45.70110 | 9.63450 | 10890 ft | 331 kts | 124° |
| 2026-05-05 18:01 | 45.68920 | 9.66257 | 10554 ft | 329 kts | 124° |
| 2026-05-05 18:01 | 45.67743 | 9.69017 | 10420 ft | 319 kts | 126° |
| 2026-05-05 18:02 | 45.66255 | 9.71240 | 10257 ft | 305 kts | 149° |
| 2026-05-05 18:02 | 45.64392 | 9.72624 | 10184 ft | 293 kts | 159° |
| 2026-05-05 18:02 | 45.62565 | 9.73733 | 10042 ft | 286 kts | 160° |
| 2026-05-05 18:02 | 45.60759 | 9.74812 | 9833 ft | 282 kts | 160° |
| 2026-05-05 18:03 | 45.58936 | 9.75918 | 9534 ft | 281 kts | 159° |
| 2026-05-05 18:03 | 45.57143 | 9.77021 | 9248 ft | 280 kts | 159° |
| 2026-05-05 18:03 | 45.55408 | 9.78096 | 9144 ft | 272 kts | 159° |
| 2026-05-05 18:03 | 45.53691 | 9.79162 | 9012 ft | 265 kts | 160° |
| 2026-05-05 18:04 | 45.51968 | 9.79945 | 8843 ft | 257 kts | 173° |
| 2026-05-05 18:04 | 45.50222 | 9.80308 | 8698 ft | 251 kts | 175° |
| 2026-05-05 18:04 | 45.48509 | 9.80649 | 8541 ft | 249 kts | 175° |
| 2026-05-05 18:04 | 45.46785 | 9.81002 | 8393 ft | 250 kts | 174° |
| 2026-05-05 18:05 | 45.45071 | 9.81364 | 8177 ft | 247 kts | 174° |
| 2026-05-05 18:05 | 45.43373 | 9.81731 | 7818 ft | 247 kts | 174° |
| 2026-05-05 18:05 | 45.41710 | 9.82386 | 7356 ft | 253 kts | 152° |
| 2026-05-05 18:05 | 45.40493 | 9.84178 | 7117 ft | 255 kts | 120° |
| 2026-05-05 18:06 | 45.40048 | 9.86593 | 7006 ft | 256 kts | 91° |
| 2026-05-05 18:06 | 45.40233 | 9.88283 | 6883 ft | 255 kts | 70° |
| 2026-05-05 18:06 | 45.41622 | 9.90802 | 6737 ft | 240 kts | 32° |
| 2026-05-05 18:06 | 45.43054 | 9.91896 | 6579 ft | 229 kts | 23° |
| 2026-05-05 18:07 | 45.44494 | 9.92826 | 6444 ft | 225 kts | 22° |
| 2026-05-05 18:07 | 45.45918 | 9.93747 | 6328 ft | 224 kts | 23° |
| 2026-05-05 18:07 | 45.47331 | 9.94673 | 6201 ft | 223 kts | 23° |
| 2026-05-05 18:07 | 45.48730 | 9.95599 | 6079 ft | 221 kts | 23° |
| 2026-05-05 18:08 | 45.50164 | 9.96375 | 5888 ft | 221 kts | 4° |
| 2026-05-05 18:08 | 45.51688 | 9.96317 | 5702 ft | 220 kts | 354° |
| 2026-05-05 18:08 | 45.53238 | 9.96214 | 5419 ft | 224 kts | 355° |
| 2026-05-05 18:08 | 45.54786 | 9.96137 | 5143 ft | 221 kts | 356° |
| 2026-05-05 18:09 | 45.56308 | 9.96066 | 4879 ft | 217 kts | 357° |
| 2026-05-05 18:09 | 45.57801 | 9.95995 | 4606 ft | 213 kts | 357° |
| 2026-05-05 18:09 | 45.59269 | 9.95921 | 4352 ft | 209 kts | 357° |
| 2026-05-05 18:09 | 45.60719 | 9.95835 | 4103 ft | 208 kts | 353° |
| 2026-05-05 18:10 | 45.62018 | 9.95067 | 3831 ft | 202 kts | 310° |
| 2026-05-05 18:10 | 45.62577 | 9.93354 | 3769 ft | 190 kts | 284° |
| 2026-05-05 18:10 | 45.62940 | 9.91506 | 3501 ft | 193 kts | 285° |
| 2026-05-05 18:10 | 45.63291 | 9.89661 | 3239 ft | 192 kts | 284° |
| 2026-05-05 18:11 | 45.63629 | 9.87824 | 2986 ft | 190 kts | 284° |
| 2026-05-05 18:11 | 45.63961 | 9.86015 | 2739 ft | 187 kts | 284° |
| 2026-05-05 18:11 | 45.64290 | 9.84219 | 2493 ft | 186 kts | 284° |
| 2026-05-05 18:11 | 45.64616 | 9.82446 | 2237 ft | 183 kts | 285° |
| 2026-05-05 18:12 | 45.64932 | 9.80728 | 2002 ft | 174 kts | 285° |
| 2026-05-05 18:12 | 45.65228 | 9.79119 | 1750 ft | 165 kts | 285° |
| 2026-05-05 18:12 | 45.65508 | 9.77579 | 1537 ft | 156 kts | 285° |
| 2026-05-05 18:12 | 45.65769 | 9.76108 | 1338 ft | 149 kts | 285° |
| 2026-05-05 18:13 | 45.66038 | 9.74678 | 1131 ft | 150 kts | 288° |
| 2026-05-05 18:13 | 45.66303 | 9.73240 | 957 ft | 150 kts | 287° |
| 2026-05-05 18:13 | 45.66573 | 9.71813 | 789 ft | 141 kts | 286° |
| 2026-05-05 18:13 | 45.66799 | 9.70614 | 786 ft | 105 kts | 285° |
| 2026-05-05 18:14 | 45.66908 | 9.70028 | 786 ft | 36 kts | 284° |
| 2026-05-05 18:14 | 45.66969 | 9.69694 | 786 ft | 32 kts | 284° |
| 2026-05-05 18:14 | 45.67014 | 9.69463 | 786 ft | 18 kts | 285° |
| 2026-05-05 18:14 | 45.67043 | 9.69353 | 786 ft | 10 kts | 311° |
| 2026-05-05 18:15 | 45.67103 | 9.69328 | 786 ft | 9 kts | 14° |
| 2026-05-05 18:15 | 45.67164 | 9.69356 | 786 ft | 9 kts | 25° |
| 2026-05-05 18:15 | 45.67199 | 9.69427 | 786 ft | 9 kts | 84° |
| 2026-05-05 18:15 | 45.67186 | 9.69512 | 786 ft | 9 kts | 105° |
| 2026-05-05 18:16 | 45.67172 | 9.69594 | 786 ft | 8 kts | 104° |
| 2026-05-05 18:16 | 45.67158 | 9.69673 | 786 ft | 8 kts | 105° |
| 2026-05-05 18:16 | 45.67142 | 9.69749 | 786 ft | 8 kts | 106° |
| 2026-05-05 18:16 | 45.67134 | 9.69793 | 786 ft | 4 kts | 104° |
| 2026-05-05 18:17 | 45.67127 | 9.69832 | 786 ft | 5 kts | 104° |
| 2026-05-05 18:17 | 45.67111 | 9.69917 | 786 ft | 12 kts | 104° |
| 2026-05-05 18:17 | 45.67102 | 9.69970 | 786 ft | 1 kts | 98° |
| 2026-05-05 18:17 | 45.67104 | 9.69979 | 786 ft | 1 kts | 68° |
| 2026-05-05 18:18 | 45.67115 | 9.69995 | 786 ft | 4 kts | 34° |
| 2026-05-05 18:18 | 45.67156 | 9.70013 | 786 ft | 7 kts | 15° |
| 2026-05-05 18:18 | 45.67207 | 9.70033 | 786 ft | 6 kts | 15° |
| 2026-05-05 18:18 | 45.67245 | 9.70053 | 786 ft | 6 kts | 39° |
| 2026-05-05 18:19 | 45.67241 | 9.70101 | 786 ft | 6 kts | 150° |
| 2026-05-05 18:19 | 45.67201 | 9.70097 | 786 ft | 6 kts | 193° |
| 2026-05-05 18:19 | 45.67173 | 9.70087 | 786 ft | 0 kts | 194° |